Time;durP1;ratioP1;P1;durP2;ratioP2;P2;SDS_P1;SDS_P2;PMS_P1;PMS_P2;Temp;Humidity;BMP_temperature;BMP_pressure;BME280_temperature;BME280_humidity;BME280_pressure;Samples;Min_cycle;Max_cycle;Signal;HPM_P1;HPM_P2
2023/05/18 00:01:02;;;;;;;;;;;22.30;40.50;;;;;;3051534;19;4537;-26
2023/05/18 00:02:03;;;;;;;;;;;22.20;40.40;;;;;;3052068;19;4529;-28
2023/05/18 00:03:04;;;;;;;;;;;22.20;40.40;;;;;;3051364;19;4654;-29
2023/05/18 00:04:06;;;;;;;;;;;22.20;40.30;;;;;;3051948;19;4542;-29
2023/05/18 00:05:09;;;;;;;;;;;22.20;40.50;;;;;;3051511;19;4486;-31
2023/05/18 00:06:09;;;;;;;;;;;22.20;40.50;;;;;;3050238;19;4740;-28
2023/05/18 00:07:11;;;;;;;;;;;22.20;40.40;;;;;;3052733;19;4623;-28
2023/05/18 00:08:12;;;;;;;;;;;22.20;40.50;;;;;;3050904;19;4624;-30
2023/05/18 00:09:12;;;;;;;;;;;22.20;40.30;;;;;;3053172;19;4553;-26
2023/05/18 00:10:13;;;;;;;;;;;22.20;40.50;;;;;;3049249;19;4477;-26
2023/05/18 00:11:14;;;;;;;;;;;22.20;40.40;;;;;;3051383;19;1066;-29
2023/05/18 00:12:14;;;;;;;;;;;22.20;40.50;;;;;;3050672;19;4720;-26
2023/05/18 00:13:15;;;;;;;;;;;22.10;40.40;;;;;;3049301;19;4638;-31
2023/05/18 00:14:16;;;;;;;;;;;22.10;41.10;;;;;;3051800;19;5054;-27
2023/05/18 00:15:17;;;;;;;;;;;22.10;40.20;;;;;;3049964;19;4559;-28
2023/05/18 00:16:17;;;;;;;;;;;22.10;40.50;;;;;;3051170;19;4586;-29
2023/05/18 00:17:19;;;;;;;;;;;22.10;40.40;;;;;;3052524;19;4570;-26
2023/05/18 00:18:22;;;;;;;;;;;22.10;40.40;;;;;;3050708;19;4414;-27
2023/05/18 00:19:23;;;;;;;;;;;22.10;40.40;;;;;;3051149;19;4630;-28
2023/05/18 00:20:25;;;;;;;;;;;22.10;40.50;;;;;;3051534;19;4683;-24
2023/05/18 00:21:29;;;;;;;;;;;22.10;40.30;;;;;;3051642;19;4442;-21
2023/05/18 00:22:30;;;;;;;;;;;22.10;40.30;;;;;;3051050;19;4484;-23
2023/05/18 00:23:31;;;;;;;;;;;22.10;40.40;;;;;;3051821;19;4408;-22
2023/05/18 00:24:32;;;;;;;;;;;22.10;40.30;;;;;;3052482;19;4584;-21
2023/05/18 00:25:33;;;;;;;;;;;22.10;40.30;;;;;;3051567;19;4627;-24
2023/05/18 00:26:33;;;;;;;;;;;22.10;40.40;;;;;;3052422;19;4408;-21
2023/05/18 00:27:34;;;;;;;;;;;22.10;40.40;;;;;;3051241;19;4564;-21
2023/05/18 00:28:35;;;;;;;;;;;22.00;40.20;;;;;;3051512;19;4582;-24
2023/05/18 00:29:36;;;;;;;;;;;22.10;40.40;;;;;;3050160;19;4505;-22
2023/05/18 00:30:36;;;;;;;;;;;22.10;40.30;;;;;;3052981;19;4530;-24
2023/05/18 00:31:38;;;;;;;;;;;22.00;40.40;;;;;;3052293;19;4695;-22
2023/05/18 00:32:38;;;;;;;;;;;22.00;40.30;;;;;;3051334;19;4567;-21
2023/05/18 00:33:39;;;;;;;;;;;22.00;40.30;;;;;;3050699;19;4633;-22
2023/05/18 00:34:40;;;;;;;;;;;22.00;40.20;;;;;;3050975;19;4405;-21
2023/05/18 00:35:40;;;;;;;;;;;22.00;40.30;;;;;;3050104;19;4539;-24
2023/05/18 00:36:41;;;;;;;;;;;22.00;40.40;;;;;;3050970;19;4563;-22
2023/05/18 00:37:42;;;;;;;;;;;22.00;40.10;;;;;;3051776;19;4571;-21
2023/05/18 00:38:42;;;;;;;;;;;22.00;40.30;;;;;;3051939;19;4576;-22
2023/05/18 00:39:43;;;;;;;;;;;22.00;40.20;;;;;;3051392;19;4784;-22
2023/05/18 00:40:44;;;;;;;;;;;22.00;40.30;;;;;;3052623;19;4516;-25
2023/05/18 00:41:44;;;;;;;;;;;22.00;40.30;;;;;;3049882;19;4567;-24
2023/05/18 00:42:45;;;;;;;;;;;22.00;40.20;;;;;;3051715;19;4444;-21
2023/05/18 00:43:46;;;;;;;;;;;22.00;40.20;;;;;;3051392;19;4420;-21
2023/05/18 00:44:46;;;;;;;;;;;22.00;40.20;;;;;;3051221;19;4607;-21
2023/05/18 00:45:47;;;;;;;;;;;22.00;40.30;;;;;;3050283;19;4607;-23
2023/05/18 00:46:49;;;;;;;;;;;22.00;40.20;;;;;;3051400;19;4577;-24
2023/05/18 00:47:49;;;;;;;;;;;22.00;40.10;;;;;;3050763;19;5114;-22
2023/05/18 00:48:50;;;;;;;;;;;22.00;40.30;;;;;;3052140;19;4552;-23
2023/05/18 00:49:51;;;;;;;;;;;22.00;40.20;;;;;;3050964;19;4645;-22
2023/05/18 00:50:51;;;;;;;;;;;22.00;40.30;;;;;;3052229;19;4461;-26
2023/05/18 00:51:52;;;;;;;;;;;21.90;40.20;;;;;;3051079;19;4503;-26
2023/05/18 00:52:53;;;;;;;;;;;22.00;40.20;;;;;;3050193;19;4769;-27
2023/05/18 00:53:54;;;;;;;;;;;22.00;40.20;;;;;;3052117;19;4519;-28
2023/05/18 00:54:57;;;;;;;;;;;22.00;40.20;;;;;;3051695;19;4583;-28
2023/05/18 00:55:57;;;;;;;;;;;21.90;40.30;;;;;;3051525;19;4329;-26
2023/05/18 00:57:01;;;;;;;;;;;21.90;40.10;;;;;;3049913;19;4409;-26
2023/05/18 00:58:01;;;;;;;;;;;21.90;40.10;;;;;;3050426;19;4417;-26
2023/05/18 00:59:03;;;;;;;;;;;21.90;40.20;;;;;;3050763;19;4525;-30
2023/05/18 01:00:09;;;;;;;;;;;21.90;40.20;;;;;;3049000;19;4490;-26
2023/05/18 01:01:10;;;;;;;;;;;21.90;40.30;;;;;;3050280;19;4541;-23
2023/05/18 01:02:10;;;;;;;;;;;21.90;40.30;;;;;;3050718;19;4557;-23
